Airport View

Enter AWOS ICAO identifier for current METAR.

ex. KFNL

PAGM 261115Z AUTO 06023G31KT 6SM -RA BR BKN005 BKN024 OVC030 10/09 A2977 RMK AO2 PK WND 06031/1111 P0002

26 Jun 2019 11:48

Frequency: 125.9

Phone: 907-985-5733

Other Area AWOS: PASA - UHMD

TAF PAOM 260539Z 2606/2706 09008KT P6SM OVC060 FM261000 09011G16KT 6SM -SHRA BR BKN035 OVC050